tititudorancea.com
Station Historical Data
Daily Summary for November 5, 2018 Units:  Metric    English   Both
« Previous Day
Next Day »
Daily Weekly Monthly Yearly Custom
  High: Low: Average:
Temperature: -17.8 °C 13 °C 18 °C
Dew Point: -17.8 °C 9.6 °C 13.2 °C
Humidity: Humidity % 54 % 74 %
Wind Speed: 0 km/h 0 km/h 14.3 km/h
Wind Gust: 0 km/h - -
Wind:- - NNW
Pressure: 0 hPa 1001.9 hPa -
Precipitation: 1.78 mm    
Historical Graphs
 
 
Ararat weather Find more about Weather in Ararat, AU


 



 


Tabular Data for November 5, 2018
Time Temperature Dew Point Pressure Wind Wind Speed Wind Gust Humidity Rainfall Rate (Hourly)
-17.8 °C -17.8 °C 0 hPa Calm     Humidity % 0 mm
00:04 15.3 °C 9.7 °C 1008.7 hPa North 5.6 km/h 3.2 km/h 69 % 0 mm
00:09 15.3 °C 9.6 °C 1008.7 hPa North 8 km/h 5 km/h 69 % 0 mm
00:14 15.2 °C 9.8 °C 1008.7 hPa North 5.6 km/h 3.4 km/h 70 % 0 mm
00:19 15.2 °C 9.9 °C 1008.4 hPa North 5.6 km/h 3.4 km/h 71 % 0 mm
00:24 15 °C 10 °C 1008.4 hPa North 1.9 km/h   72 % 0.25 mm
00:29 14.9 °C 10.1 °C 1008.4 hPa Calm     73 % 0.25 mm
00:34 14.7 °C 10.1 °C 1008.4 hPa Calm     74 % 0.25 mm
00:39 14.6 °C 10.2 °C 1008 hPa North 1.9 km/h 1.1 km/h 75 % 0.51 mm
00:44 14.4 °C 10.4 °C 1008 hPa North 3.2 km/h 1.3 km/h 77 % 0.51 mm
00:49 14.2 °C 10.4 °C 1007.7 hPa North 4.8 km/h 2.4 km/h 78 % 0.51 mm
00:54 14 °C 10.6 °C 1007.3 hPa North 3.7 km/h 3.2 km/h 80 % 0.51 mm
00:59 13.8 °C 10.6 °C 1007.3 hPa North 5.6 km/h 2.4 km/h 81 % 0.51 mm
01:04 13.7 °C 10.7 °C 1007.3 hPa North 7.4 km/h 4.5 km/h 82 % 0.51 mm
01:09 13.6 °C 10.7 °C 1007.3 hPa North 5.6 km/h 3.1 km/h 83 % 0.51 mm
01:14 13.5 °C 10.8 °C 1007 hPa North 5.6 km/h 1.9 km/h 84 % 0.76 mm
01:19 13.4 °C 10.7 °C 1007 hPa North 9.7 km/h 6.6 km/h 84 % 0.76 mm
01:24 13.4 °C 10.7 °C 1006.7 hPa North 7.4 km/h 6.3 km/h 84 % 0.51 mm
01:29 13.4 °C 10.7 °C 1006.7 hPa North 11.1 km/h 8.5 km/h 84 % 0.51 mm
01:34 13.3 °C 10.7 °C 1006.3 hPa North 9.3 km/h 7.1 km/h 84 % 0.51 mm
01:39 13.3 °C 10.7 °C 1006.3 hPa North 13 km/h 9.7 km/h 84 % 0.51 mm
01:44 13.4 °C 10.7 °C 1006 hPa North 9.3 km/h 8.9 km/h 84 % 0.51 mm
01:49 13.4 °C 10.7 °C 1006 hPa North 13 km/h 7.9 km/h 84 % 0.51 mm
01:54 13.4 °C 10.9 °C 1005.6 hPa North 11.1 km/h 6.9 km/h 85 % 0.51 mm
01:59 13.4 °C 10.9 °C 1005.6 hPa North 6.4 km/h 5.1 km/h 85 % 0.51 mm
02:04 13.4 °C 10.9 °C 1005.3 hPa North 5.6 km/h 2.4 km/h 85 % 0.51 mm
02:09 13.4 °C 10.9 °C 1005.3 hPa North 5.6 km/h 2.3 km/h 85 % 0.51 mm
02:14 13.3 °C 10.9 °C 1005.3 hPa North 7.4 km/h 5 km/h 85 % 0.25 mm
02:19 13.4 °C 10.9 °C 1005 hPa North 7.4 km/h 3.7 km/h 85 % 0.25 mm
02:24 13.4 °C 10.9 °C 1005.3 hPa North 6.4 km/h 5.3 km/h 85 % 0.25 mm
02:29 13.6 °C 10.9 °C 1005.3 hPa North 5.6 km/h 4.7 km/h 84 % 0.25 mm
02:34 13.7 °C 11 °C 1005.3 hPa North 9.3 km/h 4 km/h 84 % 0.25 mm
02:39 13.8 °C 10.9 °C 1005.3 hPa North 7.4 km/h 4.2 km/h 83 % 0.25 mm
02:44 14 °C 11 °C 1005.3 hPa North 7.4 km/h 8 km/h 82 % 0.25 mm
02:49 14.2 °C 10.8 °C 1005.6 hPa North 14.8 km/h 9 km/h 80 % 0.25 mm
02:54 14.2 °C 10.9 °C 1005.6 hPa NNW 14.8 km/h 8.5 km/h 81 % 0.25 mm
02:59 14 °C 11 °C 1005.3 hPa NNW 7.4 km/h 6.9 km/h 82 % 0.25 mm
03:04 13.8 °C 11 °C 1005.6 hPa NNW 13 km/h 9.7 km/h 83 % 0.25 mm
03:09 13.8 °C 10.9 °C 1005.6 hPa NNW 9.7 km/h 9.8 km/h 83 % 0.25 mm
03:14 13.7 °C 11.1 °C 1005.6 hPa North 9.3 km/h 6.6 km/h 84 % 0.25 mm
03:19 13.7 °C 11.1 °C 1005.3 hPa NNW 11.1 km/h 4.7 km/h 84 % 0.51 mm
03:24 13.6 °C 11.1 °C 1005 hPa North 9.3 km/h 6.3 km/h 85 % 0.51 mm
03:29 13.5 °C 11.2 °C 1005 hPa North 13 km/h 7.9 km/h 86 % 0.51 mm
03:34 13.4 °C 11.3 °C 1005 hPa NNW 9.7 km/h 7.4 km/h 87 % 0.51 mm
03:39 13.3 °C 11.2 °C 1004.6 hPa NNW 9.7 km/h 6.1 km/h 87 % 0.51 mm
03:44 13.2 °C 11.2 °C 1005 hPa North 9.3 km/h 6.1 km/h 88 % 0.51 mm
03:49 13.1 °C 11.2 °C 1004.6 hPa North 9.3 km/h 5.6 km/h 88 % 0.51 mm
03:54 13.1 °C 11.3 °C 1004.6 hPa NNW 13 km/h 6.3 km/h 89 % 0.25 mm
03:59 13.1 °C 11.3 °C 1004.6 hPa NNW 6.4 km/h 5 km/h 89 % 0.25 mm
04:04 13 °C 11.2 °C 1004.6 hPa NNW 8 km/h 5.1 km/h 89 % 0.51 mm
04:09 13 °C 11.4 °C 1005 hPa NNW 5.6 km/h 4.2 km/h 90 % 0.51 mm
04:14 13.1 °C 11.4 °C 1005 hPa North 6.4 km/h 6.4 km/h 90 % 0.51 mm
04:19 13.1 °C 11.4 °C 1005 hPa NNW 9.7 km/h 6.9 km/h 90 % 0.25 mm
04:24 13.1 °C 11.5 °C 1005 hPa NNW 9.3 km/h 6.9 km/h 90 % 0.25 mm
04:29 13.1 °C 11.5 °C 1005 hPa North 13 km/h 9.2 km/h 90 % 0.25 mm
04:34 13.2 °C 11.6 °C 1005 hPa NNW 7.4 km/h 4.8 km/h 90 % 0.25 mm
04:39 13.2 °C 11.4 °C 1005 hPa NNW 8 km/h 4.7 km/h 89 % 0.25 mm
04:44 13.2 °C 11.4 °C 1004.6 hPa North 11.1 km/h 6.6 km/h 89 % 0.25 mm
04:49 13.2 °C 11.4 °C 1005 hPa North 9.3 km/h 5.8 km/h 89 % 0.25 mm
04:54 13.1 °C 11.5 °C 1004.6 hPa NNW 5.6 km/h 5.5 km/h 90 % 0.25 mm
04:59 13.1 °C 11.5 °C 1004.6 hPa NNW 7.4 km/h 4 km/h 90 % 0.25 mm
05:04 13.1 °C 11.5 °C 1004.6 hPa NNW 6.4 km/h 3.7 km/h 90 % 0.25 mm
05:09 13.1 °C 11.5 °C 1004.6 hPa NNW 7.4 km/h 4.8 km/h 90 % 0.25 mm
05:14 13.1 °C 11.4 °C 1004.6 hPa NNW 9.3 km/h 3.5 km/h 90 % 0.25 mm
05:19 13.1 °C 11.5 °C 1004.6 hPa North 5.6 km/h 4.7 km/h 90 % 0.25 mm
05:24 13.1 °C 11.4 °C 1004.3 hPa North 7.4 km/h 6 km/h 90 % 0.25 mm
05:29 13.1 °C 11.4 °C 1004.3 hPa NNW 5.6 km/h 3.9 km/h 90 % 0.25 mm
05:34 13.1 °C 11.4 °C 1004.3 hPa North 9.3 km/h 5.6 km/h 90 % 0.25 mm
05:39 13.1 °C 11.4 °C 1003.9 hPa NNW 9.3 km/h 7.2 km/h 90 % 0.25 mm
05:44 13.1 °C 11.5 °C 1003.9 hPa North 7.4 km/h 6.6 km/h 90 % 0.25 mm
05:49 13.1 °C 11.5 °C 1003.9 hPa North 9.7 km/h 6.8 km/h 90 % 0.25 mm
05:54 13.2 °C 11.6 °C 1003.9 hPa NNW 7.4 km/h 5 km/h 90 % 0.25 mm
05:59 13.2 °C 11.6 °C 1003.9 hPa NNW 9.3 km/h 4.5 km/h 90 % 0.25 mm
06:04 13.2 °C 11.6 °C 1004.3 hPa NNW 9.3 km/h 7.2 km/h 90 % 0 mm
06:09 13.3 °C 11.6 °C 1004.3 hPa North 11.1 km/h 9 km/h 89 % 0 mm
06:14 13.4 °C 11.6 °C 1004.3 hPa North 11.3 km/h 6.1 km/h 89 % 0 mm
06:19 13.4 °C 11.7 °C 1003.9 hPa North 6.4 km/h 5.8 km/h 89 % 0 mm
06:24 13.4 °C 11.7 °C 1004.3 hPa North 9.3 km/h 7.7 km/h 89 % 0 mm
06:29 13.5 °C 11.9 °C 1004.3 hPa NNW 9.7 km/h 7.4 km/h 90 % 0 mm
06:34 13.6 °C 11.9 °C 1004.3 hPa NNW 12.9 km/h 6.1 km/h 90 % 0 mm
06:39 13.7 °C 12.1 °C 1004.3 hPa NNW 9.7 km/h 7.1 km/h 90 % 0 mm
06:44 13.7 °C 12.1 °C 1003.9 hPa NNW 11.1 km/h 6.6 km/h 90 % 0 mm
06:49 13.8 °C 12.2 °C 1004.3 hPa North 7.4 km/h 8 km/h 90 % 0 mm
06:54 13.8 °C 12.2 °C 1004.6 hPa NNW 12.9 km/h 8.5 km/h 90 % 0 mm
06:59 13.9 °C 12.3 °C 1004.3 hPa NNW 11.1 km/h 5.6 km/h 90 % 0 mm
07:04 13.9 °C 12.3 °C 1004.3 hPa NNW 6.4 km/h 6.1 km/h 90 % 0 mm
07:09 14 °C 12.4 °C 1004.3 hPa North 11.1 km/h 6 km/h 90 % 0 mm
07:14 14.1 °C 12.5 °C 1004.3 hPa North 8 km/h 6 km/h 90 % 0 mm
07:19 14.2 °C 12.6 °C 1003.9 hPa NNW 9.3 km/h 8 km/h 90 % 0 mm
07:24 14.2 °C 12.6 °C 1003.9 hPa NNW 16.7 km/h 8.4 km/h 90 % 0 mm
07:29 14.2 °C 12.6 °C 1004.3 hPa NNW 14.5 km/h 6.9 km/h 90 % 0 mm
07:34 14.4 °C 12.8 °C 1004.3 hPa NNW 14.8 km/h 9.8 km/h 90 % 0 mm
07:39 14.6 °C 12.9 °C 1004.3 hPa NNW 9.3 km/h 5.8 km/h 90 % 0 mm
07:44 14.7 °C 12.9 °C 1004.3 hPa NNW 14.8 km/h 8 km/h 89 % 0 mm
07:49 14.8 °C 13.1 °C 1004.6 hPa North 7.4 km/h 4.5 km/h 89 % 0 mm
07:54 14.9 °C 13.2 °C 1004.6 hPa NNW 13 km/h 5.5 km/h 89 % 0 mm
07:59 15 °C 13 °C 1004.6 hPa NNW 11.1 km/h 6.6 km/h 88 % 0 mm
08:04 15.1 °C 13.1 °C 1005 hPa NNW 5.6 km/h 5.6 km/h 88 % 0 mm
08:09 15.1 °C 13.1 °C 1005 hPa NNW 5.6 km/h 4 km/h 88 % 0 mm
08:14 15.2 °C 13.2 °C 1005 hPa NNW 5.6 km/h 2.1 km/h 88 % 0 mm
08:19 15.3 °C 13.1 °C 1005 hPa NNW 5.6 km/h 3.1 km/h 87 % 0 mm
08:24 15.3 °C 13.2 °C 1004.6 hPa NNW 6.4 km/h 4.7 km/h 87 % 0 mm
08:29 15.4 °C 13.1 °C 1004.6 hPa NNW 9.7 km/h 6.6 km/h 86 % 0 mm
08:34 15.5 °C 13 °C 1004.6 hPa NNW 13 km/h 5.3 km/h 85 % 0 mm
08:39 15.6 °C 13.1 °C 1004.6 hPa NNW 9.3 km/h 6.6 km/h 85 % 0 mm
08:44 15.6 °C 12.9 °C 1004.6 hPa NNW 11.1 km/h 11.1 km/h 84 % 0 mm
08:49 15.6 °C 12.9 °C 1004.6 hPa North 9.7 km/h 5.1 km/h 84 % 0 mm
08:54 15.8 °C 13.1 °C 1004.6 hPa NNW 5.6 km/h 4.3 km/h 84 % 0 mm
08:59 16.1 °C 13.2 °C 1004.6 hPa NNW 7.4 km/h 3.5 km/h 83 % 0 mm
09:04 16.4 °C 13.1 °C 1004.6 hPa NNW 8 km/h 8.2 km/h 81 % 0 mm
09:09 16.6 °C 12.9 °C 1004.6 hPa NNW 19.3 km/h 9.3 km/h 79 % 0 mm
09:14 16.9 °C 12.8 °C 1004.6 hPa North 18.5 km/h 12.4 km/h 77 % 0 mm
09:19 17.1 °C 13.2 °C 1004.3 hPa North 8 km/h 5.8 km/h 78 % 0 mm
09:24 17.4 °C 13.2 °C 1004.3 hPa North 16.7 km/h 11.1 km/h 76 % 0 mm
09:29 17.7 °C 13.2 °C 1004.3 hPa North 22.2 km/h 8.5 km/h 75 % 0 mm
09:34 18.1 °C 13.3 °C 1004.6 hPa NW 20.4 km/h 11.6 km/h 74 % 0 mm
09:39 18.2 °C 13.4 °C 1004.6 hPa NNW 20.4 km/h 11.9 km/h 74 % 0 mm
09:44 18.5 °C 14 °C 1004.6 hPa NNW 14.5 km/h 9.2 km/h 75 % 0 mm
09:49 18.6 °C 14.1 °C 1004.6 hPa North 11.1 km/h 10.6 km/h 75 % 0 mm
09:54 18.6 °C 14.1 °C 1004.6 hPa NNW 18.5 km/h 9.7 km/h 75 % 0 mm
09:59 18.7 °C 13.9 °C 1004.6 hPa North 13 km/h 10.5 km/h 74 % 0 mm
10:04 18.7 °C 14.2 °C 1005 hPa North 16.7 km/h 10.9 km/h 75 % 0 mm
10:09 18.8 °C 14.1 °C 1004.6 hPa NNW 20.4 km/h 11.4 km/h 74 % 0 mm
10:14 18.8 °C 13.8 °C 1004.6 hPa North 22.2 km/h 11.4 km/h 73 % 0 mm
10:19 18.6 °C 14.1 °C 1004.6 hPa NNW 25.9 km/h 11.9 km/h 75 % 0 mm
10:24 18.6 °C 14.3 °C 1004.3 hPa NNW 14.8 km/h 8.9 km/h 76 % 0 mm
10:29 18.8 °C 14.3 °C 1004.3 hPa NW 24.1 km/h 15.6 km/h 75 % 0 mm
10:34 18.9 °C 14.3 °C 1004.3 hPa NNW 25.7 km/h 16.9 km/h 75 % 0 mm
10:39 19.1 °C 14.8 °C 1004.3 hPa North 18.5 km/h 10.9 km/h 76 % 0 mm
10:44 19.4 °C 14.7 °C 1004.3 hPa North 25.9 km/h 18.2 km/h 74 % 0 mm
10:49 19.6 °C 14.8 °C 1004.3 hPa NW 16.7 km/h 15 km/h 74 % 0 mm
10:54 19.8 °C 15 °C 1004.3 hPa NNW 22.2 km/h 12.9 km/h 74 % 0 mm
10:59 19.8 °C 15.2 °C 1004.3 hPa NNW 22.2 km/h 13.4 km/h 75 % 0 mm
11:04 20 °C 15.4 °C 1004.3 hPa North 24.1 km/h 15.1 km/h 75 % 0 mm
11:09 19.7 °C 15.1 °C 1004.3 hPa NW 22.2 km/h 13.7 km/h 75 % 0 mm
11:14 19.4 °C 15.3 °C 1004.3 hPa North 16.7 km/h 12.6 km/h 77 % 0 mm
11:19 19.4 °C 15.3 °C 1004.3 hPa North 22.2 km/h 16.7 km/h 77 % 0 mm
11:24 19.3 °C 15.4 °C 1003.9 hPa NNW 25.9 km/h 13.4 km/h 78 % 0 mm
11:29 19.5 °C 15.6 °C 1003.9 hPa NNW 16.7 km/h 12.2 km/h 78 % 0 mm
11:34 19.6 °C 15.4 °C 1003.9 hPa NW 25.7 km/h 17.7 km/h 77 % 0 mm
11:39 19.4 °C 15.4 °C 1003.9 hPa North 20.4 km/h 15.1 km/h 78 % 0 mm
11:44 19.4 °C 15.7 °C 1003.9 hPa North 17.7 km/h 11.6 km/h 79 % 0 mm
11:49 19.4 °C 15.5 °C 1003.9 hPa NNW 20.4 km/h 10.9 km/h 78 % 0 mm
11:54 19.7 °C 15.7 °C 1004.3 hPa North 14.8 km/h 12.7 km/h 78 % 0 mm
11:59 19.6 °C 15.7 °C 1004.3 hPa NW 29.6 km/h 17.5 km/h 78 % 0 mm
12:04 19.7 °C 15.8 °C 1003.9 hPa NNW 20.4 km/h 16.1 km/h 78 % 0 mm
12:09 19.7 °C 15.7 °C 1004.3 hPa North 18.5 km/h 13.7 km/h 78 % 0 mm
12:14 19.7 °C 15.7 °C 1004.3 hPa NW 18.5 km/h 12.9 km/h 78 % 0 mm
12:19 19.6 °C 15.8 °C 1003.9 hPa North 18.5 km/h 14.5 km/h 79 % 0 mm
12:24 19.4 °C 15.7 °C 1004.3 hPa NNW 13 km/h 8.5 km/h 79 % 0 mm
12:29 19.4 °C 15.9 °C 1003.9 hPa NNW 13 km/h 8.4 km/h 80 % 0 mm
12:34 19.5 °C 15.8 °C 1003.9 hPa NW 20.4 km/h 15.1 km/h 79 % 0 mm
12:39 19.4 °C 15.9 °C 1003.9 hPa North 18.5 km/h 13.8 km/h 80 % 0 mm
12:44 19.5 °C 15.9 °C 1003.9 hPa WNW 14.8 km/h 15.9 km/h 80 % 0 mm
12:49 19.7 °C 16.1 °C 1003.9 hPa NW 24.1 km/h 9.2 km/h 80 % 0 mm
12:54 19.9 °C 16.2 °C 1003.6 hPa NW 18.5 km/h 10 km/h 79 % 0 mm
12:59 20.3 °C 16.3 °C 1003.6 hPa NW 18.5 km/h 11.4 km/h 78 % 0 mm
13:04 20.4 °C 16.2 °C 1003.6 hPa WNW 18.5 km/h 10.8 km/h 77 % 0 mm
13:09 20.5 °C 16.3 °C 1003.6 hPa NW 24.1 km/h 16.1 km/h 77 % 0 mm
13:14 20.6 °C 16.2 °C 1003.3 hPa NNW 22.2 km/h 16.4 km/h 76 % 0 mm
13:19 20.7 °C 16.1 °C 1003.6 hPa NW 31.5 km/h 23.2 km/h 75 % 0 mm
13:24 20.7 °C 16.1 °C 1003.6 hPa North 20.4 km/h 15 km/h 75 % 0 mm
13:29 20.9 °C 16.3 °C 1003.3 hPa North 22.2 km/h 13.5 km/h 75 % 0 mm
13:34 21.3 °C 16.7 °C 1003.3 hPa NNW 16.7 km/h 10.6 km/h 75 % 0 mm
13:39 21.3 °C 16.5 °C 1003.3 hPa NW 13 km/h 12.2 km/h 74 % 0 mm
13:44 21.3 °C 16.4 °C 1003.3 hPa NW 18.5 km/h 9.3 km/h 74 % 0 mm
13:49 21.5 °C 16.4 °C 1003.3 hPa WNW 20.4 km/h 12.6 km/h 73 % 0 mm
13:54 21.4 °C 16.1 °C 1003.3 hPa NNW 29.6 km/h 15.3 km/h 72 % 0 mm
13:59 21.3 °C 16.1 °C 1003.3 hPa NW 17.7 km/h 15.4 km/h 72 % 0 mm
14:04 21.3 °C 16.1 °C 1003.3 hPa NNW 25.9 km/h 15.9 km/h 72 % 0 mm
14:09 21.3 °C 16.1 °C 1003.3 hPa NW 22.2 km/h 15 km/h 72 % 0 mm
14:14 21.6 °C 16.3 °C 1003.3 hPa NW 25.7 km/h 18.8 km/h 72 % 0 mm
14:19 21.5 °C 16 °C 1003.3 hPa NW 24.1 km/h 17.1 km/h 71 % 0 mm
14:24 21.4 °C 15.9 °C 1002.9 hPa NNW 22.2 km/h 13.8 km/h 71 % 0 mm
14:29 21.6 °C 16.1 °C 1002.9 hPa NW 20.4 km/h 13.2 km/h 71 % 0 mm
14:34 22.1 °C 16.6 °C 1002.9 hPa NW 17.7 km/h 11.3 km/h 71 % 0 mm
14:39 22.9 °C 16.7 °C 1002.9 hPa NW 18.5 km/h 7.9 km/h 68 % 0 mm
14:44 22.7 °C 15.8 °C 1002.9 hPa NNW 24.1 km/h 13 km/h 65 % 0 mm
14:49 22.6 °C 16.1 °C 1002.9 hPa North 22.5 km/h 15.3 km/h 67 % 0 mm
14:54 22.2 °C 15.6 °C 1002.9 hPa NW 25.9 km/h 15.8 km/h 66 % 0 mm
14:59 21.9 °C 16.2 °C 1002.9 hPa NW 14.8 km/h 12.7 km/h 70 % 0 mm
15:04 21.8 °C 16.5 °C 1002.9 hPa North 20.4 km/h 15 km/h 72 % 0 mm
15:09 21.7 °C 16.2 °C 1002.9 hPa NW 20.4 km/h 12.7 km/h 71 % 0 mm
15:14 22.1 °C 16.6 °C 1002.6 hPa NNW 25.9 km/h 10 km/h 71 % 0 mm
15:19 22.4 °C 16.7 °C 1002.6 hPa NW 25.9 km/h 19 km/h 70 % 0 mm
15:24 22.9 °C 16.7 °C 1002.6 hPa NNW 20.9 km/h 16.9 km/h 68 % 0 mm
15:29 23.2 °C 16.4 °C 1002.6 hPa WNW 27.8 km/h 18.7 km/h 66 % 0 mm
15:34 23.3 °C 16.1 °C 1002.6 hPa NNW 22.2 km/h 16.6 km/h 64 % 0 mm
15:39 22.9 °C 15.9 °C 1002.6 hPa NNW 20.4 km/h 13.2 km/h 65 % 0 mm
15:44 22.8 °C 15.7 °C 1002.3 hPa North 31.5 km/h 23.7 km/h 64 % 0 mm
15:49 22.6 °C 15.9 °C 1002.3 hPa NW 20.4 km/h 14.2 km/h 66 % 0 mm
15:54 22.4 °C 15.8 °C 1002.3 hPa NW 22.2 km/h 15.4 km/h 66 % 0 mm
15:59 22.6 °C 15.9 °C 1002.3 hPa NNW 22.2 km/h 15.8 km/h 66 % 0 mm
16:04 22.7 °C 16.1 °C 1002.3 hPa NNW 27.8 km/h 12.9 km/h 66 % 0 mm
16:09 23.3 °C 15.8 °C 1001.9 hPa NW 20.4 km/h 18.5 km/h 63 % 0 mm
16:14 23.6 °C 15.9 °C 1001.9 hPa NW 27.8 km/h 15.6 km/h 62 % 0 mm
16:19 23.4 °C 15.2 °C 1001.9 hPa North 25.7 km/h 24 km/h 60 % 0 mm
16:24 23.3 °C 15.6 °C 1002.3 hPa WNW 20.9 km/h 20.3 km/h 62 % 0 mm
16:29 23 °C 15.3 °C 1002.3 hPa North 29.6 km/h 20.6 km/h 62 % 0 mm
16:34 22.9 °C 15.2 °C 1001.9 hPa NW 24.1 km/h 17.5 km/h 62 % 0 mm
16:39 23.2 °C 15.2 °C 1001.9 hPa WNW 27.8 km/h 19.6 km/h 61 % 0 mm
16:44 23.6 °C 15.1 °C 1001.9 hPa NNW 27.8 km/h 19.8 km/h 59 % 0 mm
16:49 23.3 °C 14.9 °C 1001.9 hPa NW 25.9 km/h 16.6 km/h 59 % 0 mm
16:54 23.6 °C 15.3 °C 1001.9 hPa North 16.7 km/h 18.5 km/h 60 % 0 mm
16:59 23.9 °C 15.2 °C 1001.9 hPa WNW 22.2 km/h 21.2 km/h 58 % 0 mm
17:04 24 °C 14.9 °C 1001.9 hPa NW 27.8 km/h 19.5 km/h 57 % 0 mm
17:09 23.9 °C 14.9 °C 1001.9 hPa WNW 22.5 km/h 19.8 km/h 57 % 0 mm
17:14 24.3 °C 14.9 °C 1001.9 hPa NW 31.5 km/h 20.3 km/h 56 % 0 mm
17:19 24.5 °C 14.9 °C 1001.9 hPa NW 25.9 km/h 19.5 km/h 55 % 0 mm
17:24 24.1 °C 14.8 °C 1001.9 hPa WNW 25.9 km/h 12.9 km/h 56 % 0 mm
17:29 23.9 °C 14.9 °C 1001.9 hPa NW 18.5 km/h 14.2 km/h 57 % 0 mm
17:34 24.1 °C 14.7 °C 1001.9 hPa NW 20.4 km/h 15.6 km/h 56 % 0 mm
17:39 24.2 °C 14.3 °C 1001.9 hPa WNW 24.1 km/h 22.5 km/h 54 % 0 mm
17:44 24.3 °C 14.4 °C 1001.9 hPa WNW 31.5 km/h 24.9 km/h 54 % 0 mm
17:49 24.2 °C 14.6 °C 1001.9 hPa North 25.9 km/h 15.6 km/h 55 % 0 mm
17:54 24 °C 14.4 °C 1002.3 hPa WNW 29.6 km/h 19.8 km/h 55 % 0 mm
17:59 23.8 °C 14.5 °C 1001.9 hPa WNW 19.3 km/h 18.8 km/h 56 % 0 mm
18:04 23.7 °C 14.7 °C 1002.3 hPa NW 20.4 km/h 17.2 km/h 57 % 0 mm
18:09 23.9 °C 14.8 °C 1002.3 hPa WNW 25.7 km/h 17.1 km/h 57 % 0 mm
18:14 23.9 °C 14.8 °C 1002.3 hPa WNW 16.7 km/h 8.2 km/h 57 % 0 mm
18:19 23.6 °C 14.8 °C 1002.3 hPa WNW 22.2 km/h 14.3 km/h 58 % 0 mm
18:24 23.4 °C 14.4 °C 1002.6 hPa WNW 22.5 km/h 15.4 km/h 57 % 0 mm
18:29 23.3 °C 14.3 °C 1002.6 hPa WNW 29.6 km/h 18.7 km/h 57 % 0 mm
18:34 23.2 °C 14.2 °C 1002.6 hPa WNW 29.6 km/h 18.8 km/h 57 % 0 mm
18:39 23.1 °C 14.4 °C 1002.6 hPa WNW 24.1 km/h 16.3 km/h 58 % 0 mm
18:44 23.1 °C 14.4 °C 1002.6 hPa WNW 25.9 km/h 20.8 km/h 58 % 0 mm
18:49 23 °C 14 °C 1002.6 hPa NW 16.7 km/h 16.7 km/h 57 % 0 mm
18:54 23.1 °C 13.8 °C 1002.6 hPa WNW 25.9 km/h 10.8 km/h 56 % 0 mm
18:59 23.1 °C 13.8 °C 1002.6 hPa West 24.1 km/h 16.3 km/h 56 % 0 mm
19:04 23.1 °C 13.8 °C 1002.9 hPa WNW 29 km/h 22 km/h 56 % 0 mm
19:09 23 °C 14 °C 1002.9 hPa North 24.1 km/h 16.9 km/h 57 % 0 mm
19:14 23 °C 13.4 °C 1002.9 hPa NW 22.2 km/h 16.9 km/h 55 % 0 mm
19:19 22.9 °C 13.4 °C 1002.9 hPa North 24.1 km/h 19.6 km/h 55 % 0 mm
19:24 22.9 °C 13.4 °C 1002.9 hPa NW 18.5 km/h 13.5 km/h 55 % 0 mm
19:29 22.8 °C 13 °C 1002.9 hPa WNW 31.5 km/h 25.6 km/h 54 % 0 mm
19:34 22.7 °C 13.2 °C 1002.9 hPa WNW 20.4 km/h 11.9 km/h 55 % 0 mm
19:39 22.6 °C 13.1 °C 1002.9 hPa North 11.1 km/h 4.7 km/h 55 % 0 mm
19:44 22.5 °C 13.3 °C 1002.9 hPa WNW 14.8 km/h 14.2 km/h 56 % 0 mm
19:49 22.3 °C 13.1 °C 1003.3 hPa WNW 18.5 km/h 14.5 km/h 56 % 0 mm
19:54 22.1 °C 13.2 °C 1003.3 hPa WNW 12.9 km/h 9.3 km/h 57 % 0 mm
19:59 21.9 °C 13.3 °C 1003.3 hPa WNW 16.7 km/h 12.9 km/h 58 % 0 mm
20:04 21.7 °C 13.1 °C 1003.3 hPa WNW 18.5 km/h 12.9 km/h 58 % 0 mm
20:09 21.6 °C 13 °C 1003.3 hPa WNW 14.8 km/h 12.2 km/h 58 % 0 mm
20:14 21.5 °C 12.9 °C 1003.3 hPa WNW 6.4 km/h 5.6 km/h 58 % 0 mm
20:19 21.3 °C 12.9 °C 1003.6 hPa WNW 8 km/h 7.7 km/h 59 % 0 mm
20:24 21.2 °C 12.9 °C 1003.6 hPa NW 16.7 km/h 14.5 km/h 59 % 0 mm
20:29 21.3 °C 12.7 °C 1003.6 hPa NW 11.1 km/h 7.1 km/h 58 % 0 mm
20:34 21.2 °C 12.6 °C 1003.6 hPa NW 11.1 km/h 7.7 km/h 58 % 0 mm
20:39 21 °C 12.7 °C 1003.6 hPa NW 11.1 km/h 7.6 km/h 59 % 0 mm
20:44 20.9 °C 12.3 °C 1003.9 hPa North 13 km/h 8.5 km/h 58 % 0 mm
20:49 20.8 °C 12.4 °C 1003.9 hPa NW 8 km/h 7.4 km/h 59 % 0 mm
20:54 20.7 °C 12.4 °C 1003.9 hPa NW 9.7 km/h 8.5 km/h 59 % 0 mm
20:59 20.7 °C 12.1 °C 1003.9 hPa WNW 13 km/h 8.4 km/h 58 % 0 mm
21:04 20.7 °C 12.2 °C 1003.9 hPa WNW 14.8 km/h 10.1 km/h 58 % 0 mm
21:09 20.7 °C 12.2 °C 1003.6 hPa WNW 9.7 km/h 6.3 km/h 58 % 0 mm
21:14 20.6 °C 12 °C 1003.9 hPa WNW 9.3 km/h 6.8 km/h 58 % 0 mm
21:19 20.4 °C 12.2 °C 1003.9 hPa WNW 13 km/h 6.4 km/h 59 % 0 mm
21:24 20.3 °C 12 °C 1003.9 hPa North 11.1 km/h 8.2 km/h 59 % 0 mm
21:29 20 °C 12 °C 1003.9 hPa WNW 5.6 km/h 4.5 km/h 60 % 0 mm
21:34 19.7 °C 12 °C 1003.9 hPa WNW 5.6 km/h 4.3 km/h 61 % 0 mm
21:39 19.4 °C 11.9 °C 1003.9 hPa WNW 3.7 km/h 2.7 km/h 62 % 0 mm
21:44 19.1 °C 12.1 °C 1003.9 hPa WNW 5.6 km/h 3.4 km/h 64 % 0 mm
21:49 18.7 °C 12 °C 1004.3 hPa WNW 4.8 km/h 2.7 km/h 65 % 0 mm
21:54 18.3 °C 12.1 °C 1004.3 hPa WNW 5.6 km/h 3.7 km/h 67 % 0 mm
21:59 18 °C 12 °C 1004.3 hPa WNW 5.6 km/h 5.3 km/h 68 % 0 mm
22:04 17.7 °C 11.9 °C 1004.3 hPa WNW 8 km/h 6.6 km/h 69 % 0 mm
22:09 17.6 °C 12.1 °C 1004.3 hPa WNW 9.3 km/h 8.2 km/h 70 % 0 mm
22:14 17.8 °C 12.2 °C 1004.3 hPa WNW 9.7 km/h 8.4 km/h 70 % 0 mm
22:19 17.9 °C 12.1 °C 1004.3 hPa WNW 7.4 km/h 6.8 km/h 69 % 0 mm
22:24 17.8 °C 12.3 °C 1004.3 hPa WNW 11.1 km/h 9.3 km/h 70 % 0 mm
22:29 17.9 °C 12.3 °C 1004.3 hPa WNW 12.9 km/h 9.8 km/h 70 % 0 mm
22:34 18.1 °C 12.5 °C 1004.3 hPa WNW 13 km/h 9.3 km/h 70 % 0 mm
22:39 18.2 °C 12.4 °C 1004.3 hPa WNW 9.7 km/h 7.7 km/h 69 % 0 mm
22:44 18.3 °C 12.6 °C 1004.3 hPa WNW 11.1 km/h 7.2 km/h 69 % 0 mm
22:49 18.4 °C 12.6 °C 1004.3 hPa WNW 7.4 km/h 4.2 km/h 69 % 0 mm
22:54 18.4 °C 12.6 °C 1004.3 hPa WNW 5.6 km/h 1 km/h 69 % 0 mm
22:59 18.2 °C 12.4 °C 1004.3 hPa WNW 3.7 km/h 2.3 km/h 69 % 0 mm
23:04 17.9 °C 11.9 °C 1004.3 hPa WNW 3.7 km/h 1.1 km/h 68 % 0 mm
23:09 17.6 °C 11.8 °C 1004.3 hPa Calm     69 % 0 mm
23:14 17.2 °C 11.7 °C 1004.3 hPa North 3.7 km/h 0.2 km/h 70 % 0 mm
23:19 16.8 °C 11.7 °C 1004.3 hPa WNW 3.7 km/h   72 % 0 mm
23:24 16.6 °C 11.7 °C 1003.9 hPa WNW 5.6 km/h 4.5 km/h 73 % 0 mm
23:29 16.4 °C 11.7 °C 1004.3 hPa WNW 3.7 km/h 0.5 km/h 74 % 0 mm
23:34 16.2 °C 11.8 °C 1004.3 hPa Calm     75 % 0 mm
23:39 16.1 °C 11.7 °C 1003.9 hPa Calm     75 % 0 mm
23:44 15.9 °C 11.4 °C 1003.9 hPa WNW 3.7 km/h 2.9 km/h 75 % 0 mm
23:49 15.7 °C 11.5 °C 1003.9 hPa Calm     76 % 0 mm
23:54 15.6 °C 11.6 °C 1003.9 hPa Calm     77 % 0 mm
23:59 15.6 °C 11.7 °C 1003.9 hPa Calm     78 % 0 mm
Ararat Weather
Compliments of Weather Underground - 2.25 mb
Click here to send mail.


ABOUT

Live weather data from Ararat, Victoria, Australia, 3377
Data uploaded from Cumulus every 5 minutes to Weather Underground.
This site then downloads the raw data for formatting and display.
Metric and imperial data can be displayed. Graphs and historical data available.
Includes Sun and Moon times and rain image live from BOM.

Check out Ararat Weather on Facebook, Twitter and Google +

Help support ongoing costs by checking out the ads





Follow @AraratWeather